sensor_id;sensor_type;location;lat;lon;timestamp;pressure;altitude;pressure_sealevel;temperature;humidity
26657;BME280;14279;50.010;8.260;2023-04-28T00:07:38;100256.59;;;14.79;44.81
26657;BME280;14279;50.010;8.260;2023-04-28T00:23:47;100238.81;;;14.97;46.22
26657;BME280;14279;50.010;8.260;2023-04-28T00:37:08;100230.41;;;14.92;45.93
26657;BME280;14279;50.010;8.260;2023-04-28T00:47:03;100213.41;;;14.85;45.72
26657;BME280;14279;50.010;8.260;2023-04-28T00:50:41;100208.91;;;14.47;45.88
26657;BME280;14279;50.010;8.260;2023-04-28T00:54:18;100201.50;;;14.11;47.04
26657;BME280;14279;50.010;8.260;2023-04-28T00:57:28;100199.00;;;14.10;47.88
26657;BME280;14279;50.010;8.260;2023-04-28T01:07:51;100178.78;;;14.39;50.25
26657;BME280;14279;50.010;8.260;2023-04-28T01:14:36;100173.53;;;13.85;52.54
26657;BME280;14279;50.010;8.260;2023-04-28T01:37:35;100153.94;;;13.19;59.90
26657;BME280;14279;50.010;8.260;2023-04-28T01:40:52;100161.78;;;13.19;59.00
26657;BME280;14279;50.010;8.260;2023-04-28T01:54:07;100165.63;;;13.28;58.83
26657;BME280;14279;50.010;8.260;2023-04-28T02:00:34;100157.13;;;13.25;61.64
26657;BME280;14279;50.010;8.260;2023-04-28T02:20:35;100154.47;;;13.41;65.15
26657;BME280;14279;50.010;8.260;2023-04-28T02:26:51;100160.03;;;13.49;63.28
26657;BME280;14279;50.010;8.260;2023-04-28T02:29:41;100151.84;;;13.41;62.53
26657;BME280;14279;50.010;8.260;2023-04-28T02:32:32;100141.47;;;13.53;63.70
26657;BME280;14279;50.010;8.260;2023-04-28T02:35:57;100140.34;;;13.58;63.92
26657;BME280;14279;50.010;8.260;2023-04-28T02:39:26;100126.88;;;13.64;62.75
26657;BME280;14279;50.010;8.260;2023-04-28T02:45:49;100137.31;;;13.78;62.67
26657;BME280;14279;50.010;8.260;2023-04-28T02:51:26;100118.16;;;13.78;62.60
26657;BME280;14279;50.010;8.260;2023-04-28T02:58:21;100117.31;;;13.77;62.75
26657;BME280;14279;50.010;8.260;2023-04-28T03:01:12;100118.81;;;13.67;65.20
26657;BME280;14279;50.010;8.260;2023-04-28T03:10:30;100101.13;;;13.58;66.92
26657;BME280;14279;50.010;8.260;2023-04-28T03:13:26;100101.56;;;13.64;67.10
26657;BME280;14279;50.010;8.260;2023-04-28T03:16:56;100113.91;;;13.62;67.02
26657;BME280;14279;50.010;8.260;2023-04-28T03:20:06;100102.88;;;13.57;67.14
26657;BME280;14279;50.010;8.260;2023-04-28T03:33:51;100088.94;;;13.71;67.75
26657;BME280;14279;50.010;8.260;2023-04-28T03:36:58;100084.38;;;13.60;68.42
26657;BME280;14279;50.010;8.260;2023-04-28T03:43:22;100084.56;;;13.72;67.42
26657;BME280;14279;50.010;8.260;2023-04-28T03:46:26;100069.56;;;13.74;66.71
26657;BME280;14279;50.010;8.260;2023-04-28T03:49:49;100064.84;;;13.66;64.24
26657;BME280;14279;50.010;8.260;2023-04-28T03:53:05;100051.69;;;13.67;63.05
26657;BME280;14279;50.010;8.260;2023-04-28T03:56:18;100061.97;;;13.56;63.08
26657;BME280;14279;50.010;8.260;2023-04-28T04:02:11;100062.56;;;13.32;63.59
26657;BME280;14279;50.010;8.260;2023-04-28T04:05:42;100060.22;;;13.28;64.02
26657;BME280;14279;50.010;8.260;2023-04-28T04:08:26;100053.50;;;13.23;65.30
26657;BME280;14279;50.010;8.260;2023-04-28T04:14:01;100050.78;;;13.25;65.04
26657;BME280;14279;50.010;8.260;2023-04-28T04:19:36;100045.28;;;13.30;64.87
26657;BME280;14279;50.010;8.260;2023-04-28T04:22:12;100047.66;;;13.20;65.54
26657;BME280;14279;50.010;8.260;2023-04-28T04:24:49;100045.03;;;13.20;64.51
26657;BME280;14279;50.010;8.260;2023-04-28T04:27:23;100033.47;;;13.24;64.72
26657;BME280;14279;50.010;8.260;2023-04-28T04:29:56;100028.88;;;13.28;64.65
26657;BME280;14279;50.010;8.260;2023-04-28T04:32:49;100037.09;;;13.21;64.66
26657;BME280;14279;50.010;8.260;2023-04-28T04:35:41;100027.38;;;13.23;64.90
26657;BME280;14279;50.010;8.260;2023-04-28T04:45:01;100042.91;;;12.83;67.98
26657;BME280;14279;50.010;8.260;2023-04-28T05:01:39;100059.63;;;12.05;75.81
26657;BME280;14279;50.010;8.260;2023-04-28T05:04:53;100066.53;;;12.06;77.58
26657;BME280;14279;50.010;8.260;2023-04-28T05:11:18;100066.53;;;11.90;80.71
26657;BME280;14279;50.010;8.260;2023-04-28T05:13:51;100061.41;;;11.88;82.41
26657;BME280;14279;50.010;8.260;2023-04-28T05:16:16;100056.63;;;11.81;82.66
26657;BME280;14279;50.010;8.260;2023-04-28T05:18:56;100069.94;;;11.60;82.60
26657;BME280;14279;50.010;8.260;2023-04-28T05:21:22;100063.63;;;11.64;83.42
26657;BME280;14279;50.010;8.260;2023-04-28T05:23:47;100058.25;;;11.51;83.14
26657;BME280;14279;50.010;8.260;2023-04-28T05:26:50;100068.84;;;11.48;83.52
26657;BME280;14279;50.010;8.260;2023-04-28T05:37:10;100057.22;;;11.38;83.27
26657;BME280;14279;50.010;8.260;2023-04-28T05:40:00;100069.00;;;11.29;85.77
26657;BME280;14279;50.010;8.260;2023-04-28T05:43:18;100073.38;;;11.28;86.90
26657;BME280;14279;50.010;8.260;2023-04-28T06:14:10;100066.13;;;11.18;90.09
26657;BME280;14279;50.010;8.260;2023-04-28T06:16:35;100073.28;;;11.30;91.11
26657;BME280;14279;50.010;8.260;2023-04-28T06:23:00;100077.00;;;11.42;89.88
26657;BME280;14279;50.010;8.260;2023-04-28T06:25:38;100082.63;;;11.34;90.30
26657;BME280;14279;50.010;8.260;2023-04-28T06:28:31;100091.19;;;11.36;90.68
26657;BME280;14279;50.010;8.260;2023-04-28T06:41:30;100083.13;;;11.41;91.76
26657;BME280;14279;50.010;8.260;2023-04-28T06:44:16;100084.66;;;11.45;91.45
26657;BME280;14279;50.010;8.260;2023-04-28T06:47:10;100070.59;;;11.48;91.49
26657;BME280;14279;50.010;8.260;2023-04-28T06:49:36;100076.91;;;11.60;91.56
26657;BME280;14279;50.010;8.260;2023-04-28T06:52:03;100075.81;;;11.64;91.92
26657;BME280;14279;50.010;8.260;2023-04-28T06:54:28;100069.19;;;11.58;91.28
26657;BME280;14279;50.010;8.260;2023-04-28T06:56:54;100063.38;;;11.69;92.26
26657;BME280;14279;50.010;8.260;2023-04-28T06:59:19;100066.97;;;11.82;92.48
26657;BME280;14279;50.010;8.260;2023-04-28T07:01:44;100062.44;;;11.86;91.87
26657;BME280;14279;50.010;8.260;2023-04-28T07:04:09;100054.06;;;11.95;91.67
26657;BME280;14279;50.010;8.260;2023-04-28T07:06:35;100050.97;;;12.05;92.08
26657;BME280;14279;50.010;8.260;2023-04-28T07:09:00;100046.94;;;11.99;91.91
26657;BME280;14279;50.010;8.260;2023-04-28T07:11:25;100056.66;;;11.95;92.35
26657;BME280;14279;50.010;8.260;2023-04-28T07:13:51;100055.53;;;11.85;92.13
26657;BME280;14279;50.010;8.260;2023-04-28T07:16:17;100039.34;;;11.94;91.59
26657;BME280;14279;50.010;8.260;2023-04-28T07:18:43;100050.53;;;11.96;91.43
26657;BME280;14279;50.010;8.260;2023-04-28T07:21:08;100055.19;;;11.91;92.24
26657;BME280;14279;50.010;8.260;2023-04-28T07:27:29;100052.06;;;12.00;90.25
26657;BME280;14279;50.010;8.260;2023-04-28T07:30:21;100047.47;;;12.20;90.66
26657;BME280;14279;50.010;8.260;2023-04-28T07:32:47;100057.34;;;12.15;91.04
26657;BME280;14279;50.010;8.260;2023-04-28T07:35:12;100054.53;;;12.18;90.40
26657;BME280;14279;50.010;8.260;2023-04-28T07:37:37;100046.00;;;12.30;91.22
26657;BME280;14279;50.010;8.260;2023-04-28T07:40:04;100042.00;;;12.25;89.98
26657;BME280;14279;50.010;8.260;2023-04-28T07:42:30;100051.09;;;12.17;90.10
26657;BME280;14279;50.010;8.260;2023-04-28T07:44:55;100060.63;;;12.18;90.49
26657;BME280;14279;50.010;8.260;2023-04-28T07:47:22;100063.88;;;12.22;89.61
26657;BME280;14279;50.010;8.260;2023-04-28T07:49:47;100061.94;;;12.26;88.62
26657;BME280;14279;50.010;8.260;2023-04-28T07:52:13;100060.16;;;12.26;88.56
26657;BME280;14279;50.010;8.260;2023-04-28T07:54:38;100056.66;;;12.11;88.99
26657;BME280;14279;50.010;8.260;2023-04-28T07:57:03;100061.19;;;12.24;90.66
26657;BME280;14279;50.010;8.260;2023-04-28T07:59:34;100057.97;;;12.49;89.29
26657;BME280;14279;50.010;8.260;2023-04-28T08:01:59;100069.28;;;12.50;88.75
26657;BME280;14279;50.010;8.260;2023-04-28T08:04:24;100076.06;;;12.52;87.72
26657;BME280;14279;50.010;8.260;2023-04-28T08:06:50;100084.59;;;12.70;87.05
26657;BME280;14279;50.010;8.260;2023-04-28T08:09:15;100081.31;;;12.67;86.96
26657;BME280;14279;50.010;8.260;2023-04-28T08:11:49;100074.63;;;12.62;86.64
26657;BME280;14279;50.010;8.260;2023-04-28T08:14:15;100079.16;;;12.59;87.68
26657;BME280;14279;50.010;8.260;2023-04-28T08:16:43;100076.81;;;12.54;86.83
26657;BME280;14279;50.010;8.260;2023-04-28T08:19:09;100077.34;;;12.30;87.05
26657;BME280;14279;50.010;8.260;2023-04-28T08:21:35;100079.59;;;12.37;87.11
26657;BME280;14279;50.010;8.260;2023-04-28T08:24:00;100077.41;;;12.29;87.25
26657;BME280;14279;50.010;8.260;2023-04-28T08:26:25;100079.78;;;12.33;86.86
26657;BME280;14279;50.010;8.260;2023-04-28T08:28:51;100083.03;;;12.37;86.36
26657;BME280;14279;50.010;8.260;2023-04-28T08:31:17;100085.91;;;12.32;87.10
26657;BME280;14279;50.010;8.260;2023-04-28T08:33:42;100082.16;;;12.22;86.71
26657;BME280;14279;50.010;8.260;2023-04-28T08:36:09;100080.41;;;12.37;86.00
26657;BME280;14279;50.010;8.260;2023-04-28T08:38:36;100093.16;;;12.58;85.29
26657;BME280;14279;50.010;8.260;2023-04-28T08:41:03;100083.38;;;12.61;84.89
26657;BME280;14279;50.010;8.260;2023-04-28T08:43:28;100078.28;;;12.74;84.67
26657;BME280;14279;50.010;8.260;2023-04-28T08:45:54;100078.44;;;12.86;83.89
26657;BME280;14279;50.010;8.260;2023-04-28T08:48:21;100083.88;;;12.97;83.70
26657;BME280;14279;50.010;8.260;2023-04-28T08:50:53;100086.09;;;12.89;83.04
26657;BME280;14279;50.010;8.260;2023-04-28T08:53:24;100089.47;;;13.05;83.07
26657;BME280;14279;50.010;8.260;2023-04-28T08:55:56;100092.81;;;13.36;81.94
26657;BME280;14279;50.010;8.260;2023-04-28T08:58:23;100086.88;;;13.62;80.86
26657;BME280;14279;50.010;8.260;2023-04-28T09:00:50;100082.13;;;13.68;79.75
26657;BME280;14279;50.010;8.260;2023-04-28T09:03:15;100085.94;;;13.63;79.93
26657;BME280;14279;50.010;8.260;2023-04-28T09:05:41;100088.88;;;13.86;78.82
26657;BME280;14279;50.010;8.260;2023-04-28T09:08:06;100086.88;;;13.76;79.88
26657;BME280;14279;50.010;8.260;2023-04-28T09:10:31;100089.97;;;13.68;80.54
26657;BME280;14279;50.010;8.260;2023-04-28T09:12:56;100089.97;;;13.68;80.49
26657;BME280;14279;50.010;8.260;2023-04-28T09:15:36;100079.53;;;13.54;80.79
26657;BME280;14279;50.010;8.260;2023-04-28T09:18:03;100080.66;;;13.64;80.75
26657;BME280;14279;50.010;8.260;2023-04-28T09:20:31;100075.78;;;13.86;80.50
26657;BME280;14279;50.010;8.260;2023-04-28T09:23:13;100080.56;;;13.93;79.46
26657;BME280;14279;50.010;8.260;2023-04-28T09:25:38;100089.41;;;14.18;77.86
26657;BME280;14279;50.010;8.260;2023-04-28T09:28:19;100078.38;;;14.00;77.80
26657;BME280;14279;50.010;8.260;2023-04-28T09:30:46;100086.72;;;14.33;77.62
26657;BME280;14279;50.010;8.260;2023-04-28T09:33:12;100087.34;;;14.36;76.73
26657;BME280;14279;50.010;8.260;2023-04-28T09:35:38;100084.69;;;14.64;76.17
26657;BME280;14279;50.010;8.260;2023-04-28T09:38:04;100091.59;;;14.11;78.74
26657;BME280;14279;50.010;8.260;2023-04-28T09:40:30;100095.84;;;14.00;78.76
26657;BME280;14279;50.010;8.260;2023-04-28T09:42:55;100084.31;;;14.30;78.26
26657;BME280;14279;50.010;8.260;2023-04-28T09:45:21;100085.19;;;14.43;79.00
26657;BME280;14279;50.010;8.260;2023-04-28T09:47:46;100086.69;;;14.20;78.77
26657;BME280;14279;50.010;8.260;2023-04-28T09:50:14;100084.13;;;14.46;78.27
26657;BME280;14279;50.010;8.260;2023-04-28T09:52:41;100074.53;;;14.85;77.18
26657;BME280;14279;50.010;8.260;2023-04-28T09:55:10;100071.59;;;14.90;75.98
26657;BME280;14279;50.010;8.260;2023-04-28T09:57:36;100066.34;;;15.02;74.74
26657;BME280;14279;50.010;8.260;2023-04-28T10:00:04;100069.16;;;15.12;75.58
26657;BME280;14279;50.010;8.260;2023-04-28T10:02:30;100078.16;;;15.21;74.88
26657;BME280;14279;50.010;8.260;2023-04-28T10:04:56;100075.78;;;15.42;74.65
26657;BME280;14279;50.010;8.260;2023-04-28T10:07:21;100076.16;;;15.25;74.92
26657;BME280;14279;50.010;8.260;2023-04-28T10:09:48;100077.25;;;14.96;75.28
26657;BME280;14279;50.010;8.260;2023-04-28T10:12:20;100078.88;;;15.36;73.28
26657;BME280;14279;50.010;8.260;2023-04-28T10:14:47;100082.34;;;15.24;73.68
26657;BME280;14279;50.010;8.260;2023-04-28T10:17:19;100077.53;;;15.17;75.25
26657;BME280;14279;50.010;8.260;2023-04-28T10:19:46;100081.13;;;15.16;74.50
26657;BME280;14279;50.010;8.260;2023-04-28T10:25:06;100068.19;;;15.26;75.17
26657;BME280;14279;50.010;8.260;2023-04-28T10:27:33;100075.69;;;15.44;75.00
26657;BME280;14279;50.010;8.260;2023-04-28T10:30:20;100068.03;;;15.41;75.03
26657;BME280;14279;50.010;8.260;2023-04-28T10:32:47;100060.19;;;14.91;76.47
26657;BME280;14279;50.010;8.260;2023-04-28T10:38:09;100059.28;;;15.53;74.55
26657;BME280;14279;50.010;8.260;2023-04-28T10:40:37;100065.28;;;15.42;76.12
26657;BME280;14279;50.010;8.260;2023-04-28T10:43:04;100064.16;;;15.71;73.49
26657;BME280;14279;50.010;8.260;2023-04-28T10:56:24;100066.13;;;15.56;76.35
26657;BME280;14279;50.010;8.260;2023-04-28T10:58:54;100062.00;;;15.27;77.49
26657;BME280;14279;50.010;8.260;2023-04-28T11:08:54;100043.84;;;16.10;75.04
26657;BME280;14279;50.010;8.260;2023-04-28T11:11:25;100056.06;;;16.22;75.41
26657;BME280;14279;50.010;8.260;2023-04-28T11:13:52;100065.19;;;16.41;74.20
26657;BME280;14279;50.010;8.260;2023-04-28T11:16:20;100056.53;;;16.28;75.11
26657;BME280;14279;50.010;8.260;2023-04-28T11:18:57;100063.16;;;16.45;73.91
26657;BME280;14279;50.010;8.260;2023-04-28T11:21:25;100041.31;;;16.56;72.95
26657;BME280;14279;50.010;8.260;2023-04-28T11:23:52;100045.50;;;16.70;73.52
26657;BME280;14279;50.010;8.260;2023-04-28T11:26:18;100044.69;;;17.03;72.61
26657;BME280;14279;50.010;8.260;2023-04-28T11:28:48;100041.94;;;17.27;71.83
26657;BME280;14279;50.010;8.260;2023-04-28T11:31:14;100035.13;;;17.69;71.04
26657;BME280;14279;50.010;8.260;2023-04-28T11:34:09;100040.63;;;17.10;72.17
26657;BME280;14279;50.010;8.260;2023-04-28T11:36:41;100035.47;;;16.63;73.64
26657;BME280;14279;50.010;8.260;2023-04-28T11:39:08;100042.69;;;16.95;73.82
26657;BME280;14279;50.010;8.260;2023-04-28T11:41:35;100029.34;;;16.51;75.81
26657;BME280;14279;50.010;8.260;2023-04-28T11:44:15;100024.47;;;16.70;75.72
26657;BME280;14279;50.010;8.260;2023-04-28T11:46:45;100020.44;;;17.00;75.16
26657;BME280;14279;50.010;8.260;2023-04-28T11:49:11;100016.84;;;17.23;73.83
26657;BME280;14279;50.010;8.260;2023-04-28T11:51:39;100030.97;;;17.00;74.72
26657;BME280;14279;50.010;8.260;2023-04-28T11:54:05;100030.47;;;16.72;75.69
26657;BME280;14279;50.010;8.260;2023-04-28T11:56:39;100023.28;;;16.74;76.34
26657;BME280;14279;50.010;8.260;2023-04-28T11:59:09;100027.13;;;17.15;74.62
26657;BME280;14279;50.010;8.260;2023-04-28T12:01:49;100012.72;;;17.75;73.07
26657;BME280;14279;50.010;8.260;2023-04-28T12:07:03;100010.19;;;17.52;73.74
26657;BME280;14279;50.010;8.260;2023-04-28T12:09:29;100003.03;;;17.42;72.71
26657;BME280;14279;50.010;8.260;2023-04-28T12:11:59;99998.16;;;18.03;71.42
26657;BME280;14279;50.010;8.260;2023-04-28T12:14:26;100000.00;;;18.96;68.31
26657;BME280;14279;50.010;8.260;2023-04-28T12:16:52;99993.53;;;19.10;67.46
26657;BME280;14279;50.010;8.260;2023-04-28T12:19:17;100014.19;;;18.42;69.21
26657;BME280;14279;50.010;8.260;2023-04-28T12:22:00;99998.63;;;18.39;68.94
26657;BME280;14279;50.010;8.260;2023-04-28T12:24:26;100001.22;;;18.29;68.06
26657;BME280;14279;50.010;8.260;2023-04-28T12:26:51;100001.84;;;18.43;69.46
26657;BME280;14279;50.010;8.260;2023-04-28T12:29:37;100002.94;;;17.98;70.75
26657;BME280;14279;50.010;8.260;2023-04-28T12:32:04;99999.69;;;18.06;70.51
26657;BME280;14279;50.010;8.260;2023-04-28T12:34:30;100004.06;;;18.16;70.10
26657;BME280;14279;50.010;8.260;2023-04-28T12:36:57;99999.81;;;18.25;70.30
26657;BME280;14279;50.010;8.260;2023-04-28T12:39:22;99985.25;;;18.83;68.91
26657;BME280;14279;50.010;8.260;2023-04-28T12:41:49;99997.66;;;19.02;68.57
26657;BME280;14279;50.010;8.260;2023-04-28T12:44:15;100000.63;;;18.78;69.20
26657;BME280;14279;50.010;8.260;2023-04-28T12:46:40;100005.28;;;18.96;68.97
26657;BME280;14279;50.010;8.260;2023-04-28T12:49:06;99994.41;;;18.89;68.25
26657;BME280;14279;50.010;8.260;2023-04-28T12:51:31;99990.09;;;19.38;67.03
26657;BME280;14279;50.010;8.260;2023-04-28T12:53:59;99992.13;;;19.15;67.62
26657;BME280;14279;50.010;8.260;2023-04-28T12:56:24;99980.47;;;18.67;69.47
26657;BME280;14279;50.010;8.260;2023-04-28T12:58:49;99977.44;;;18.82;69.04
26657;BME280;14279;50.010;8.260;2023-04-28T13:01:15;99981.63;;;18.84;69.36
26657;BME280;14279;50.010;8.260;2023-04-28T13:03:40;99970.50;;;18.81;69.48
26657;BME280;14279;50.010;8.260;2023-04-28T13:06:08;99969.31;;;18.54;70.57
26657;BME280;14279;50.010;8.260;2023-04-28T13:08:34;99978.97;;;18.43;70.81
26657;BME280;14279;50.010;8.260;2023-04-28T13:11:00;99996.97;;;17.96;72.51
26657;BME280;14279;50.010;8.260;2023-04-28T13:13:25;99996.81;;;17.97;72.68
26657;BME280;14279;50.010;8.260;2023-04-28T13:15:50;99986.22;;;17.99;72.83
26657;BME280;14279;50.010;8.260;2023-04-28T13:18:16;99992.88;;;18.03;72.89
26657;BME280;14279;50.010;8.260;2023-04-28T13:20:41;100000.97;;;17.79;74.00
26657;BME280;14279;50.010;8.260;2023-04-28T13:23:06;99990.44;;;17.79;74.46
26657;BME280;14279;50.010;8.260;2023-04-28T13:25:32;99978.84;;;17.49;75.29
26657;BME280;14279;50.010;8.260;2023-04-28T13:27:57;99964.31;;;17.66;75.08
26657;BME280;14279;50.010;8.260;2023-04-28T13:30:22;99979.53;;;17.62;76.31
26657;BME280;14279;50.010;8.260;2023-04-28T13:32:47;99974.75;;;17.56;76.69
26657;BME280;14279;50.010;8.260;2023-04-28T13:35:13;99960.88;;;17.54;77.73
26657;BME280;14279;50.010;8.260;2023-04-28T13:37:38;99971.47;;;17.42;78.44
26657;BME280;14279;50.010;8.260;2023-04-28T13:40:09;99980.13;;;17.22;80.58
26657;BME280;14279;50.010;8.260;2023-04-28T13:42:36;99986.94;;;17.24;81.52
26657;BME280;14279;50.010;8.260;2023-04-28T13:45:01;99976.66;;;17.33;80.65
26657;BME280;14279;50.010;8.260;2023-04-28T13:47:28;99958.41;;;17.52;79.92
26657;BME280;14279;50.010;8.260;2023-04-28T13:49:56;99965.91;;;17.57;81.04
26657;BME280;14279;50.010;8.260;2023-04-28T13:52:21;99944.28;;;17.75;81.39
26657;BME280;14279;50.010;8.260;2023-04-28T13:54:47;99929.75;;;18.13;79.76
26657;BME280;14279;50.010;8.260;2023-04-28T13:57:12;99934.72;;;17.52;83.90
26657;BME280;14279;50.010;8.260;2023-04-28T13:59:38;99933.81;;;17.84;82.28
26657;BME280;14279;50.010;8.260;2023-04-28T14:02:03;99933.31;;;17.69;83.08
26657;BME280;14279;50.010;8.260;2023-04-28T14:04:28;99929.91;;;17.79;84.35
26657;BME280;14279;50.010;8.260;2023-04-28T14:06:54;99905.31;;;18.11;83.88
26657;BME280;14279;50.010;8.260;2023-04-28T14:09:19;99899.94;;;18.53;82.17
26657;BME280;14279;50.010;8.260;2023-04-28T14:11:44;99915.53;;;18.76;81.89
26657;BME280;14279;50.010;8.260;2023-04-28T14:14:10;99921.75;;;19.35;79.17
26657;BME280;14279;50.010;8.260;2023-04-28T14:16:36;99920.09;;;19.15;79.80
26657;BME280;14279;50.010;8.260;2023-04-28T14:19:01;99927.22;;;18.83;79.65
26657;BME280;14279;50.010;8.260;2023-04-28T14:21:26;99917.44;;;19.05;77.99
26657;BME280;14279;50.010;8.260;2023-04-28T14:23:52;99910.38;;;19.45;75.94
26657;BME280;14279;50.010;8.260;2023-04-28T14:26:17;99918.28;;;19.74;75.34
26657;BME280;14279;50.010;8.260;2023-04-28T14:28:42;99912.31;;;19.62;75.94
26657;BME280;14279;50.010;8.260;2023-04-28T14:31:08;99911.50;;;19.62;75.45
26657;BME280;14279;50.010;8.260;2023-04-28T14:33:33;99905.66;;;19.48;76.30
26657;BME280;14279;50.010;8.260;2023-04-28T14:35:59;99900.22;;;19.40;77.00
26657;BME280;14279;50.010;8.260;2023-04-28T14:38:24;99903.56;;;19.62;76.38
26657;BME280;14279;50.010;8.260;2023-04-28T14:40:50;99904.34;;;19.82;74.75
26657;BME280;14279;50.010;8.260;2023-04-28T14:43:15;99897.31;;;19.43;78.18
26657;BME280;14279;50.010;8.260;2023-04-28T14:45:40;99893.44;;;19.37;78.44
26657;BME280;14279;50.010;8.260;2023-04-28T14:48:06;99886.13;;;18.90;80.52
26657;BME280;14279;50.010;8.260;2023-04-28T14:50:31;99879.28;;;19.29;79.93
26657;BME280;14279;50.010;8.260;2023-04-28T14:52:57;99880.66;;;19.43;79.21
26657;BME280;14279;50.010;8.260;2023-04-28T14:55:29;99881.63;;;19.22;79.98
26657;BME280;14279;50.010;8.260;2023-04-28T14:57:54;99879.59;;;19.83;77.29
26657;BME280;14279;50.010;8.260;2023-04-28T15:00:20;99885.31;;;19.78;77.00
26657;BME280;14279;50.010;8.260;2023-04-28T15:02:46;99890.31;;;19.81;76.72
26657;BME280;14279;50.010;8.260;2023-04-28T15:05:12;99897.28;;;19.82;76.44
26657;BME280;14279;50.010;8.260;2023-04-28T15:07:37;99896.16;;;20.33;74.26
26657;BME280;14279;50.010;8.260;2023-04-28T15:10:03;99904.09;;;20.33;74.71
26657;BME280;14279;50.010;8.260;2023-04-28T15:12:29;99890.06;;;20.32;74.90
26657;BME280;14279;50.010;8.260;2023-04-28T15:14:55;99897.50;;;20.09;75.43
26657;BME280;14279;50.010;8.260;2023-04-28T15:17:20;99891.31;;;19.80;76.29
26657;BME280;14279;50.010;8.260;2023-04-28T15:19:47;99882.56;;;19.60;76.77
26657;BME280;14279;50.010;8.260;2023-04-28T15:22:13;99871.88;;;19.72;76.91
26657;BME280;14279;50.010;8.260;2023-04-28T15:24:39;99867.97;;;19.56;77.13
26657;BME280;14279;50.010;8.260;2023-04-28T15:27:04;99863.63;;;19.94;75.70
26657;BME280;14279;50.010;8.260;2023-04-28T15:29:30;99864.47;;;19.75;76.39
26657;BME280;14279;50.010;8.260;2023-04-28T15:31:58;99865.69;;;20.01;75.88
26657;BME280;14279;50.010;8.260;2023-04-28T15:34:24;99871.78;;;20.11;74.37
26657;BME280;14279;50.010;8.260;2023-04-28T15:36:50;99879.56;;;20.03;74.70
26657;BME280;14279;50.010;8.260;2023-04-28T15:39:16;99873.69;;;20.19;74.74
26657;BME280;14279;50.010;8.260;2023-04-28T15:41:42;99869.19;;;20.29;73.52
26657;BME280;14279;50.010;8.260;2023-04-28T15:44:07;99861.50;;;20.64;72.51
26657;BME280;14279;50.010;8.260;2023-04-28T15:46:35;99864.47;;;19.75;74.68
26657;BME280;14279;50.010;8.260;2023-04-28T15:49:01;99866.63;;;19.32;76.99
26657;BME280;14279;50.010;8.260;2023-04-28T15:51:26;99859.38;;;19.44;76.87
26657;BME280;14279;50.010;8.260;2023-04-28T15:53:51;99852.03;;;19.48;76.58
26657;BME280;14279;50.010;8.260;2023-04-28T15:56:19;99856.06;;;19.32;77.80
26657;BME280;14279;50.010;8.260;2023-04-28T15:58:45;99869.41;;;19.31;78.03
26657;BME280;14279;50.010;8.260;2023-04-28T16:01:12;99867.72;;;19.40;77.15
26657;BME280;14279;50.010;8.260;2023-04-28T16:03:37;99871.34;;;19.48;76.82
26657;BME280;14279;50.010;8.260;2023-04-28T16:06:04;99868.28;;;19.43;76.81
26657;BME280;14279;50.010;8.260;2023-04-28T16:08:30;99861.22;;;19.44;76.59
26657;BME280;14279;50.010;8.260;2023-04-28T16:10:55;99857.03;;;19.31;75.80
26657;BME280;14279;50.010;8.260;2023-04-28T16:13:20;99872.88;;;19.21;76.57
26657;BME280;14279;50.010;8.260;2023-04-28T16:15:46;99880.09;;;19.00;77.44
26657;BME280;14279;50.010;8.260;2023-04-28T16:18:13;99864.22;;;18.80;78.36
26657;BME280;14279;50.010;8.260;2023-04-28T16:20:39;99872.78;;;18.53;80.44
26657;BME280;14279;50.010;8.260;2023-04-28T16:23:05;99896.53;;;18.31;82.64
26657;BME280;14279;50.010;8.260;2023-04-28T16:25:31;99902.03;;;18.50;82.39
26657;BME280;14279;50.010;8.260;2023-04-28T16:27:56;99910.50;;;18.22;84.45
26657;BME280;14279;50.010;8.260;2023-04-28T16:30:21;99913.13;;;17.58;91.02
26657;BME280;14279;50.010;8.260;2023-04-28T16:32:47;99904.66;;;17.55;94.78
26657;BME280;14279;50.010;8.260;2023-04-28T16:35:12;99879.19;;;17.55;98.17
26657;BME280;14279;50.010;8.260;2023-04-28T16:37:58;99876.38;;;17.15;100.00
26657;BME280;14279;50.010;8.260;2023-04-28T16:40:23;99877.38;;;17.02;100.00
26657;BME280;14279;50.010;8.260;2023-04-28T16:42:48;99875.47;;;16.93;100.00
26657;BME280;14279;50.010;8.260;2023-04-28T16:45:13;99861.84;;;16.99;100.00
26657;BME280;14279;50.010;8.260;2023-04-28T16:47:40;99859.69;;;17.04;100.00
26657;BME280;14279;50.010;8.260;2023-04-28T16:50:08;99859.81;;;17.56;100.00
26657;BME280;14279;50.010;8.260;2023-04-28T16:52:34;99853.84;;;18.28;97.93
26657;BME280;14279;50.010;8.260;2023-04-28T16:54:59;99847.97;;;18.24;86.52
26657;BME280;14279;50.010;8.260;2023-04-28T16:57:25;99857.06;;;18.10;88.82
26657;BME280;14279;50.010;8.260;2023-04-28T16:59:50;99866.56;;;18.23;84.51
26657;BME280;14279;50.010;8.260;2023-04-28T17:02:15;99858.44;;;18.45;85.24
26657;BME280;14279;50.010;8.260;2023-04-28T17:04:41;99857.94;;;18.61;83.57
26657;BME280;14279;50.010;8.260;2023-04-28T17:07:06;99860.81;;;18.48;80.78
26657;BME280;14279;50.010;8.260;2023-04-28T17:09:32;99854.38;;;18.82;80.63
26657;BME280;14279;50.010;8.260;2023-04-28T17:11:58;99861.44;;;18.82;82.55
26657;BME280;14279;50.010;8.260;2023-04-28T17:14:23;99856.66;;;18.56;82.59
26657;BME280;14279;50.010;8.260;2023-04-28T17:16:48;99856.31;;;17.98;85.04
26657;BME280;14279;50.010;8.260;2023-04-28T17:19:14;99853.88;;;18.07;84.18
26657;BME280;14279;50.010;8.260;2023-04-28T17:21:39;99846.13;;;17.84;85.79
26657;BME280;14279;50.010;8.260;2023-04-28T17:24:04;99850.06;;;17.47;90.04
26657;BME280;14279;50.010;8.260;2023-04-28T17:26:30;99842.81;;;17.39;91.06
26657;BME280;14279;50.010;8.260;2023-04-28T17:28:57;99849.31;;;17.24;92.16